Time;durP1;ratioP1;P1;durP2;ratioP2;P2;SDS_P1;SDS_P2;PMS_P1;PMS_P2;Temp;Humidity;BMP_temperature;BMP_pressure;BME280_temperature;BME280_humidity;BME280_pressure;Samples;Min_cycle;Max_cycle;Signal;HPM_P1;HPM_P2
2021/05/31 00:02:20;;;;;;;2.80;1.20;;;;;;;;;;5065607;28;20074;-82
2021/05/31 00:04:46;;;;;;;1.40;1.00;;;;;;;;;;5059328;28;20081;-81
2021/05/31 00:07:14;;;;;;;1.10;1.10;;;;;;;;;;5069741;28;20140;-81
2021/05/31 00:09:42;;;;;;;2.25;2.05;;;;;;;;;;5066442;28;20485;-81
2021/05/31 00:12:10;;;;;;;1.30;1.20;;;;;;;;;;5069299;28;20104;-81
2021/05/31 00:14:37;;;;;;;2.30;1.30;;;;;;;;;;5069329;28;20086;-81
2021/05/31 00:17:04;;;;;;;1.10;1.00;;;;;;;;;;5061693;28;20370;-81
2021/05/31 00:19:30;;;;;;;2.50;1.20;;;;;;;;;;5039604;28;20553;-81
2021/05/31 00:21:57;;;;;;;1.65;1.20;;;;;;;;;;5049123;28;20094;-81
2021/05/31 00:24:24;;;;;;;1.13;1.13;;;;;;;;;;5069082;28;20036;-81
2021/05/31 00:26:52;;;;;;;1.20;1.20;;;;;;;;;;5069464;28;20086;-81
2021/05/31 00:29:23;;;;;;;1.13;1.10;;;;;;;;;;5068655;28;20064;-81
2021/05/31 00:31:57;;;;;;;2.38;1.30;;;;;;;;;;5049027;28;20040;-81
2021/05/31 00:34:27;;;;;;;1.20;1.20;;;;;;;;;;5069857;28;20393;-82
2021/05/31 00:37:02;;;;;;;1.38;1.38;;;;;;;;;;5067658;28;20086;-81
2021/05/31 00:39:33;;;;;;;1.30;1.30;;;;;;;;;;5067836;28;20494;-81
2021/05/31 00:42:06;;;;;;;1.30;1.30;;;;;;;;;;5068255;28;20750;-81
2021/05/31 00:44:41;;;;;;;1.10;1.10;;;;;;;;;;5066172;28;20035;-81
2021/05/31 00:47:13;;;;;;;1.20;1.20;;;;;;;;;;5065060;28;20037;-81
2021/05/31 00:49:42;;;;;;;1.13;1.13;;;;;;;;;;5063920;28;20428;-81
2021/05/31 00:52:13;;;;;;;1.33;1.33;;;;;;;;;;5067278;28;20037;-81
2021/05/31 00:54:43;;;;;;;1.20;1.20;;;;;;;;;;5058911;28;20095;-81
2021/05/31 00:57:12;;;;;;;1.75;1.60;;;;;;;;;;5055789;28;20075;-81
2021/05/31 00:59:42;;;;;;;1.60;1.60;;;;;;;;;;5084022;28;20044;-81
2021/05/31 01:02:09;;;;;;;2.70;2.60;;;;;;;;;;5066622;28;20037;-81
2021/05/31 01:04:36;;;;;;;3.92;3.92;;;;;;;;;;5061156;28;20044;-81
2021/05/31 01:07:06;;;;;;;6.15;6.15;;;;;;;;;;5059760;28;20041;-81
2021/05/31 01:09:58;;;;;;;7.03;6.93;;;;;;;;;;5063877;28;20363;-81
2021/05/31 01:12:29;;;;;;;8.65;8.55;;;;;;;;;;5024372;28;20048;-81
2021/05/31 01:15:05;;;;;;;7.75;7.72;;;;;;;;;;5070796;28;20036;-81
2021/05/31 01:17:38;;;;;;;10.00;9.80;;;;;;;;;;5071349;28;20055;-81
2021/05/31 01:20:35;;;;;;;7.10;7.07;;;;;;;;;;5069046;28;20040;-81
2021/05/31 01:23:03;;;;;;;3.78;3.78;;;;;;;;;;5060784;28;20045;-81
2021/05/31 01:25:40;;;;;;;4.28;4.13;;;;;;;;;;5074845;28;20037;-82
2021/05/31 01:28:12;;;;;;;4.25;4.25;;;;;;;;;;5071416;28;20098;-81
2021/05/31 01:30:45;;;;;;;6.65;6.63;;;;;;;;;;5064056;28;20048;-81
2021/05/31 01:33:19;;;;;;;4.43;4.40;;;;;;;;;;5080627;28;20106;-82
2021/05/31 01:35:47;;;;;;;7.85;7.80;;;;;;;;;;5066515;28;20438;-81
2021/05/31 01:38:16;;;;;;;10.05;9.95;;;;;;;;;;5068476;28;20045;-81
2021/05/31 01:40:47;;;;;;;7.53;7.50;;;;;;;;;;5070712;28;20033;-81
2021/05/31 01:43:18;;;;;;;7.55;7.45;;;;;;;;;;5059583;28;20497;-81
2021/05/31 01:45:45;;;;;;;8.18;8.07;;;;;;;;;;5077740;28;20041;-81
2021/05/31 01:48:12;;;;;;;6.20;6.10;;;;;;;;;;5071973;28;20047;-81
2021/05/31 01:50:40;;;;;;;4.80;4.80;;;;;;;;;;5070627;28;20029;-81
2021/05/31 01:53:07;;;;;;;3.20;3.13;;;;;;;;;;5069660;28;20052;-81
2021/05/31 01:55:34;;;;;;;3.50;3.50;;;;;;;;;;5060523;28;20037;-81
2021/05/31 01:58:02;;;;;;;2.65;2.65;;;;;;;;;;5063383;28;20040;-81
2021/05/31 02:00:30;;;;;;;2.47;1.85;;;;;;;;;;5070280;28;20397;-81
2021/05/31 02:02:57;;;;;;;1.73;1.73;;;;;;;;;;5070168;28;20068;-81
2021/05/31 02:05:23;;;;;;;2.65;2.65;;;;;;;;;;5069491;28;20041;-81
2021/05/31 02:07:52;;;;;;;4.78;4.57;;;;;;;;;;5050357;28;20079;-81
2021/05/31 02:10:18;;;;;;;7.43;7.43;;;;;;;;;;5066341;28;20127;-81
2021/05/31 02:12:59;;;;;;;10.57;10.38;;;;;;;;;;5053826;28;20037;-81
2021/05/31 02:15:30;;;;;;;10.43;10.23;;;;;;;;;;5069894;28;20120;-81
2021/05/31 02:17:59;;;;;;;11.98;11.88;;;;;;;;;;5068165;28;20124;-81
2021/05/31 02:20:29;;;;;;;6.68;6.53;;;;;;;;;;5060313;28;20043;-82
2021/05/31 02:23:00;;;;;;;12.13;12.02;;;;;;;;;;5066436;28;20433;-82
2021/05/31 02:25:27;;;;;;;11.65;11.45;;;;;;;;;;5057795;28;20519;-82
2021/05/31 02:27:58;;;;;;;11.25;11.15;;;;;;;;;;5073181;28;20103;-82
2021/05/31 02:30:32;;;;;;;8.13;8.05;;;;;;;;;;5064544;28;20032;-82
2021/05/31 02:33:01;;;;;;;4.38;4.38;;;;;;;;;;5052927;28;20036;-81
2021/05/31 02:35:29;;;;;;;5.55;5.35;;;;;;;;;;5047730;28;20497;-81
2021/05/31 02:37:58;;;;;;;4.97;4.97;;;;;;;;;;5098458;28;20040;-81
2021/05/31 02:40:25;;;;;;;3.20;3.15;;;;;;;;;;5062333;28;20086;-82
2021/05/31 02:42:53;;;;;;;2.85;2.80;;;;;;;;;;5069640;28;20093;-82
2021/05/31 02:45:22;;;;;;;4.28;4.15;;;;;;;;;;5068216;28;20048;-81
2021/05/31 02:47:50;;;;;;;2.72;2.72;;;;;;;;;;5071830;28;20040;-82
2021/05/31 02:50:19;;;;;;;2.83;2.80;;;;;;;;;;5070341;28;20039;-82
2021/05/31 02:52:46;;;;;;;2.25;2.25;;;;;;;;;;5069368;28;20398;-82
2021/05/31 02:55:14;;;;;;;3.15;3.15;;;;;;;;;;5067722;28;20059;-81
2021/05/31 02:57:41;;;;;;;4.97;4.97;;;;;;;;;;5068158;28;20219;-81
2021/05/31 03:00:10;;;;;;;3.83;3.83;;;;;;;;;;5069559;28;20492;-81
2021/05/31 03:02:37;;;;;;;4.53;4.43;;;;;;;;;;5067830;28;20044;-82
2021/05/31 03:05:08;;;;;;;7.88;7.75;;;;;;;;;;5058940;28;20045;-82
2021/05/31 03:07:35;;;;;;;4.75;4.65;;;;;;;;;;5065577;28;20036;-82
2021/05/31 03:10:02;;;;;;;4.53;4.53;;;;;;;;;;5069326;28;20032;-82
2021/05/31 03:12:28;;;;;;;6.95;6.82;;;;;;;;;;5070734;28;20040;-81
2021/05/31 03:14:55;;;;;;;4.88;4.88;;;;;;;;;;5068675;28;20059;-81
2021/05/31 03:17:22;;;;;;;10.68;10.38;;;;;;;;;;5053674;28;20090;-81
2021/05/31 03:19:49;;;;;;;10.32;10.20;;;;;;;;;;5092347;28;20049;-81
2021/05/31 03:22:16;;;;;;;10.93;10.82;;;;;;;;;;5067757;28;20048;-81
2021/05/31 03:24:43;;;;;;;10.80;10.60;;;;;;;;;;5101893;28;20044;-81
2021/05/31 03:27:10;;;;;;;10.85;10.73;;;;;;;;;;5066891;28;20044;-82
2021/05/31 03:29:36;;;;;;;12.00;11.90;;;;;;;;;;5069083;28;20102;-81
2021/05/31 03:32:03;;;;;;;11.50;11.40;;;;;;;;;;5059373;28;20135;-81
2021/05/31 03:34:30;;;;;;;9.93;9.73;;;;;;;;;;5065198;28;20513;-81
2021/05/31 03:36:57;;;;;;;7.60;7.50;;;;;;;;;;5053901;28;20497;-81
2021/05/31 03:39:24;;;;;;;5.07;5.07;;;;;;;;;;5078456;28;20055;-81
2021/05/31 03:41:51;;;;;;;3.33;3.05;;;;;;;;;;5068124;28;20127;-81
2021/05/31 03:44:18;;;;;;;3.42;3.42;;;;;;;;;;5057565;28;20068;-81
2021/05/31 03:46:44;;;;;;;4.22;4.15;;;;;;;;;;5061916;28;20101;-81
2021/05/31 03:49:11;;;;;;;6.22;6.13;;;;;;;;;;5051189;28;20402;-81
2021/05/31 03:51:38;;;;;;;5.60;5.43;;;;;;;;;;5061839;28;20044;-82
2021/05/31 03:54:05;;;;;;;3.15;2.90;;;;;;;;;;5068340;28;20126;-81
2021/05/31 03:56:31;;;;;;;4.63;4.40;;;;;;;;;;5057750;28;20181;-81
2021/05/31 03:58:58;;;;;;;2.08;2.08;;;;;;;;;;5062311;28;20517;-81
2021/05/31 04:01:25;;;;;;;2.00;2.00;;;;;;;;;;5062355;28;20040;-81
2021/05/31 04:03:53;;;;;;;1.75;1.75;;;;;;;;;;5070217;28;20041;-81
2021/05/31 04:11:37;;;;;;;1.40;1.40;;;;;;;;;;5065663;28;20048;-81
2021/05/31 04:14:05;;;;;;;1.48;1.48;;;;;;;;;;5067321;28;20066;-81
2021/05/31 04:16:32;;;;;;;2.22;2.13;;;;;;;;;;5068821;28;20095;-81
2021/05/31 04:18:59;;;;;;;2.20;2.10;;;;;;;;;;5095968;28;20032;-82
2021/05/31 04:21:26;;;;;;;4.15;1.95;;;;;;;;;;5068513;28;20043;-82
2021/05/31 04:23:53;;;;;;;3.10;3.10;;;;;;;;;;5066710;28;20039;-82
2021/05/31 04:26:20;;;;;;;2.13;2.13;;;;;;;;;;5056183;28;20473;-81
2021/05/31 04:28:47;;;;;;;1.98;1.98;;;;;;;;;;5061916;28;20040;-81
2021/05/31 04:31:14;;;;;;;1.60;1.60;;;;;;;;;;5067192;28;20036;-81
2021/05/31 04:33:41;;;;;;;3.80;2.42;;;;;;;;;;5069263;28;20048;-81
2021/05/31 04:36:08;;;;;;;1.77;1.77;;;;;;;;;;5066295;28;20045;-82
2021/05/31 04:38:34;;;;;;;2.20;2.20;;;;;;;;;;5069113;28;20440;-82
2021/05/31 04:41:02;;;;;;;1.80;1.80;;;;;;;;;;5069435;28;20102;-82
2021/05/31 04:43:29;;;;;;;2.10;2.00;;;;;;;;;;5069629;28;20044;-82
2021/05/31 04:45:56;;;;;;;2.35;2.25;;;;;;;;;;5060444;28;20040;-82
2021/05/31 04:48:23;;;;;;;2.35;2.35;;;;;;;;;;5072086;28;20355;-81
2021/05/31 04:50:56;;;;;;;1.88;1.77;;;;;;;;;;5071587;28;20498;-81
2021/05/31 04:53:24;;;;;;;2.08;2.08;;;;;;;;;;5064754;28;20036;-81
2021/05/31 04:55:51;;;;;;;1.40;1.40;;;;;;;;;;5070228;28;20057;-84
2021/05/31 04:58:18;;;;;;;1.20;1.20;;;;;;;;;;5060818;28;20037;-82
2021/05/31 05:00:45;;;;;;;1.70;1.60;;;;;;;;;;5071148;28;20033;-82
2021/05/31 05:03:12;;;;;;;1.38;1.38;;;;;;;;;;5070689;28;20064;-81
2021/05/31 05:05:39;;;;;;;1.88;1.77;;;;;;;;;;5062760;28;20035;-82
2021/05/31 05:08:06;;;;;;;1.48;1.48;;;;;;;;;;5070774;28;20033;-82
2021/05/31 05:10:33;;;;;;;1.30;1.30;;;;;;;;;;5072209;28;20443;-81
2021/05/31 05:13:00;;;;;;;1.30;1.30;;;;;;;;;;5069775;28;20067;-82
2021/05/31 05:15:27;;;;;;;1.30;1.30;;;;;;;;;;5071923;28;20461;-82
2021/05/31 05:17:54;;;;;;;1.65;1.50;;;;;;;;;;5069971;28;20041;-82
2021/05/31 05:20:23;;;;;;;1.40;1.40;;;;;;;;;;5064751;28;20068;-82
2021/05/31 05:22:50;;;;;;;1.25;1.25;;;;;;;;;;5065093;28;20452;-81
2021/05/31 05:25:17;;;;;;;1.67;1.67;;;;;;;;;;5067112;28;20072;-81
2021/05/31 05:27:44;;;;;;;1.42;1.42;;;;;;;;;;5068537;28;20056;-81
2021/05/31 05:30:13;;;;;;;2.05;1.30;;;;;;;;;;5102030;28;20047;-80
2021/05/31 05:32:47;;;;;;;1.20;1.20;;;;;;;;;;5063363;28;20048;-80
2021/05/31 05:48:50;;;;;;;1.30;1.30;;;;;;;;;;5065494;28;20033;-80
2021/05/31 05:51:16;;;;;;;1.67;1.30;;;;;;;;;;5059113;28;20036;-80
2021/05/31 05:53:46;;;;;;;3.33;1.10;;;;;;;;;;5070452;28;20032;-80
2021/05/31 05:56:16;;;;;;;1.42;1.42;;;;;;;;;;5068766;28;20032;-80
2021/05/31 05:58:44;;;;;;;1.45;1.35;;;;;;;;;;5070751;28;20032;-80
2021/05/31 06:01:12;;;;;;;1.58;1.48;;;;;;;;;;5060250;28;20119;-80
2021/05/31 06:03:39;;;;;;;1.55;1.45;;;;;;;;;;5061027;28;20509;-80
2021/05/31 06:06:06;;;;;;;1.30;1.30;;;;;;;;;;5068669;28;20037;-80
2021/05/31 06:08:33;;;;;;;3.35;1.77;;;;;;;;;;5064956;28;20060;-80
2021/05/31 06:11:00;;;;;;;1.40;1.10;;;;;;;;;;5069021;28;20490;-80
2021/05/31 06:13:27;;;;;;;3.00;1.10;;;;;;;;;;5060437;28;20091;-80
2021/05/31 06:15:54;;;;;;;1.20;1.20;;;;;;;;;;5062818;28;20040;-80
2021/05/31 06:18:21;;;;;;;1.13;1.13;;;;;;;;;;5054499;28;20052;-81
2021/05/31 06:20:48;;;;;;;4.90;1.30;;;;;;;;;;5065871;28;20045;-80
2021/05/31 06:23:15;;;;;;;4.07;1.20;;;;;;;;;;5061575;28;21035;-81
2021/05/31 06:25:41;;;;;;;3.17;1.40;;;;;;;;;;5082314;28;20421;-81
2021/05/31 06:28:08;;;;;;;1.30;1.30;;;;;;;;;;5063630;28;20032;-81
2021/05/31 06:30:35;;;;;;;1.52;1.27;;;;;;;;;;5034914;28;20048;-81
2021/05/31 06:33:03;;;;;;;5.32;1.65;;;;;;;;;;5067089;28;20063;-81
2021/05/31 06:35:30;;;;;;;4.10;1.05;;;;;;;;;;5094091;28;20547;-81
2021/05/31 06:37:57;;;;;;;1.00;1.00;;;;;;;;;;5085014;28;20485;-81
2021/05/31 06:40:24;;;;;;;2.42;1.10;;;;;;;;;;5070119;28;20492;-81
2021/05/31 06:42:52;;;;;;;2.35;1.00;;;;;;;;;;5052577;28;20498;-81
2021/05/31 06:45:24;;;;;;;5.25;1.42;;;;;;;;;;5064054;28;20053;-81
2021/05/31 06:47:52;;;;;;;1.00;1.00;;;;;;;;;;5075373;28;20094;-81
2021/05/31 06:50:19;;;;;;;5.75;1.00;;;;;;;;;;5069099;28;20036;-81
2021/05/31 06:52:46;;;;;;;2.42;1.10;;;;;;;;;;5068125;28;20040;-80
2021/05/31 06:55:13;;;;;;;2.72;1.00;;;;;;;;;;5062410;28;20040;-81
2021/05/31 06:57:40;;;;;;;1.55;1.10;;;;;;;;;;5061559;28;20064;-81
2021/05/31 07:00:09;;;;;;;5.88;1.00;;;;;;;;;;5075269;28;20057;-81
2021/05/31 07:02:36;;;;;;;1.35;1.35;;;;;;;;;;5053604;28;20037;-81
2021/05/31 07:05:04;;;;;;;1.00;0.90;;;;;;;;;;5063392;28;20039;-81
2021/05/31 07:07:30;;;;;;;1.10;0.90;;;;;;;;;;5063644;28;20134;-81
2021/05/31 07:09:58;;;;;;;3.70;1.20;;;;;;;;;;5063017;28;20094;-81
2021/05/31 07:12:24;;;;;;;0.82;0.82;;;;;;;;;;5065598;28;20040;-81
2021/05/31 07:14:52;;;;;;;0.93;0.80;;;;;;;;;;5053929;28;20049;-81
2021/05/31 07:17:19;;;;;;;0.80;0.80;;;;;;;;;;5062918;28;20078;-81
2021/05/31 07:19:46;;;;;;;0.80;0.80;;;;;;;;;;5060383;28;20596;-81
2021/05/31 07:22:19;;;;;;;2.95;0.80;;;;;;;;;;5060499;28;20043;-81
2021/05/31 07:24:46;;;;;;;2.15;0.80;;;;;;;;;;5059180;28;20045;-81
2021/05/31 07:27:13;;;;;;;2.75;0.80;;;;;;;;;;5062036;28;20048;-81
2021/05/31 07:29:40;;;;;;;2.10;0.80;;;;;;;;;;5068884;28;20048;-81
2021/05/31 07:32:07;;;;;;;2.63;0.77;;;;;;;;;;5098766;28;20538;-81
2021/05/31 07:34:34;;;;;;;1.35;1.25;;;;;;;;;;5057928;28;20053;-81
2021/05/31 07:37:01;;;;;;;0.80;0.80;;;;;;;;;;5082471;28;20039;-81
2021/05/31 07:39:28;;;;;;;4.97;1.17;;;;;;;;;;5055651;28;20032;-81
2021/05/31 07:41:55;;;;;;;0.85;0.80;;;;;;;;;;5067044;28;20047;-81
2021/05/31 07:44:22;;;;;;;9.57;0.90;;;;;;;;;;5056723;28;20049;-81
2021/05/31 07:46:49;;;;;;;3.35;0.90;;;;;;;;;;5068569;28;20108;-81
2021/05/31 07:49:15;;;;;;;2.35;0.80;;;;;;;;;;5065005;28;20040;-81
2021/05/31 07:51:46;;;;;;;1.90;0.80;;;;;;;;;;5052937;28;20650;-81
2021/05/31 07:54:14;;;;;;;0.93;0.77;;;;;;;;;;5069193;28;20037;-81
2021/05/31 07:56:41;;;;;;;0.95;0.70;;;;;;;;;;5067192;28;20478;-81
2021/05/31 07:59:08;;;;;;;4.13;0.80;;;;;;;;;;5068398;28;20040;-81
2021/05/31 08:01:35;;;;;;;2.95;0.90;;;;;;;;;;5064226;28;20043;-82
2021/05/31 08:04:06;;;;;;;0.70;0.70;;;;;;;;;;5052578;28;20033;-81
2021/05/31 08:06:34;;;;;;;0.70;0.70;;;;;;;;;;5068764;28;20032;-82
2021/05/31 08:09:02;;;;;;;0.80;0.80;;;;;;;;;;5064614;28;20041;-82
2021/05/31 08:11:29;;;;;;;2.30;0.70;;;;;;;;;;5101064;28;20040;-82
2021/05/31 08:13:56;;;;;;;0.90;0.90;;;;;;;;;;5064046;28;20113;-82
2021/05/31 08:16:23;;;;;;;0.70;0.70;;;;;;;;;;5043035;28;20587;-82
2021/05/31 08:18:49;;;;;;;5.25;0.85;;;;;;;;;;5059385;28;20098;-82
2021/05/31 08:21:16;;;;;;;3.00;0.80;;;;;;;;;;5054071;28;20056;-82
2021/05/31 08:23:43;;;;;;;0.60;0.60;;;;;;;;;;5071972;28;20039;-82
2021/05/31 08:26:10;;;;;;;3.22;0.70;;;;;;;;;;5072227;28;20045;-82
2021/05/31 08:28:37;;;;;;;0.70;0.70;;;;;;;;;;5072658;28;20037;-82
2021/05/31 08:31:03;;;;;;;0.60;0.60;;;;;;;;;;5059406;28;20134;-82
2021/05/31 08:33:30;;;;;;;1.63;0.70;;;;;;;;;;5065687;28;20040;-82
2021/05/31 08:35:57;;;;;;;1.38;0.70;;;;;;;;;;5073142;28;20381;-81
2021/05/31 08:38:24;;;;;;;0.70;0.70;;;;;;;;;;5085306;28;20036;-81
2021/05/31 08:40:52;;;;;;;0.90;0.70;;;;;;;;;;5067080;28;20044;-82
2021/05/31 08:43:19;;;;;;;1.40;0.90;;;;;;;;;;5070007;28;20116;-82
2021/05/31 08:45:45;;;;;;;1.85;0.70;;;;;;;;;;5068105;28;20503;-82
2021/05/31 08:48:13;;;;;;;1.73;0.70;;;;;;;;;;5055203;28;20047;-82
2021/05/31 08:50:40;;;;;;;0.70;0.70;;;;;;;;;;5085225;28;20040;-82
2021/05/31 08:53:07;;;;;;;0.70;0.70;;;;;;;;;;5062050;28;20049;-82
2021/05/31 08:55:34;;;;;;;0.70;0.70;;;;;;;;;;5055033;28;20032;-82
2021/05/31 08:58:01;;;;;;;0.70;0.70;;;;;;;;;;5068152;28;20759;-82
2021/05/31 09:00:37;;;;;;;0.70;0.70;;;;;;;;;;5088942;28;20131;-82
2021/05/31 09:03:05;;;;;;;1.05;1.05;;;;;;;;;;5070592;28;20036;-82
2021/05/31 09:05:33;;;;;;;1.65;0.70;;;;;;;;;;5069852;28;20044;-82
2021/05/31 09:08:00;;;;;;;0.70;0.70;;;;;;;;;;5071047;28;20909;-82
2021/05/31 09:10:32;;;;;;;0.70;0.70;;;;;;;;;;5065881;28;20036;-82
2021/05/31 09:12:59;;;;;;;1.20;0.70;;;;;;;;;;5067212;28;20172;-82
2021/05/31 09:15:26;;;;;;;2.40;0.80;;;;;;;;;;5070594;28;20071;-82
2021/05/31 09:17:53;;;;;;;0.82;0.75;;;;;;;;;;5068502;28;20045;-82
2021/05/31 09:20:20;;;;;;;0.60;0.60;;;;;;;;;;5071687;28;20052;-82
2021/05/31 09:22:48;;;;;;;0.68;0.68;;;;;;;;;;5071826;28;20040;-82
2021/05/31 09:25:22;;;;;;;0.60;0.60;;;;;;;;;;5070408;28;20090;-82
2021/05/31 09:27:50;;;;;;;0.70;0.70;;;;;;;;;;5055106;28;20060;-82
2021/05/31 09:30:17;;;;;;;2.05;0.70;;;;;;;;;;5068288;28;20054;-82
2021/05/31 09:32:52;;;;;;;0.70;0.70;;;;;;;;;;5068503;28;20808;-82
2021/05/31 09:35:21;;;;;;;2.05;0.60;;;;;;;;;;5071197;28;20045;-82
2021/05/31 09:37:49;;;;;;;0.82;0.70;;;;;;;;;;5100723;27;20040;-82
2021/05/31 09:40:17;;;;;;;0.60;0.60;;;;;;;;;;5070353;28;20086;-82
2021/05/31 09:42:48;;;;;;;1.08;0.60;;;;;;;;;;5068579;28;20120;-82
2021/05/31 09:45:15;;;;;;;0.95;0.70;;;;;;;;;;5060253;28;20071;-82
2021/05/31 09:47:42;;;;;;;0.60;0.60;;;;;;;;;;5057271;28;20044;-82
2021/05/31 09:50:09;;;;;;;1.08;0.60;;;;;;;;;;5065033;28;20118;-82
2021/05/31 09:52:37;;;;;;;0.60;0.60;;;;;;;;;;5053194;28;20132;-82
2021/05/31 09:55:05;;;;;;;2.70;1.17;;;;;;;;;;5071093;28;20044;-82
2021/05/31 09:57:35;;;;;;;0.65;0.60;;;;;;;;;;5068526;28;20041;-82
2021/05/31 10:00:13;;;;;;;1.02;0.70;;;;;;;;;;5071234;28;20131;-82
2021/05/31 10:10:36;;;;;;;1.30;0.60;;;;;;;;;;5070902;28;20685;-82
2021/05/31 10:13:04;;;;;;;0.95;0.60;;;;;;;;;;5071204;28;20036;-82
2021/05/31 10:15:31;;;;;;;0.60;0.60;;;;;;;;;;5065758;28;20397;-82
2021/05/31 10:17:59;;;;;;;0.68;0.68;;;;;;;;;;5062590;28;20055;-82
2021/05/31 10:20:27;;;;;;;0.60;0.60;;;;;;;;;;5081550;28;20040;-82
2021/05/31 10:22:54;;;;;;;0.70;0.70;;;;;;;;;;5068504;28;20119;-82
2021/05/31 10:25:22;;;;;;;0.60;0.60;;;;;;;;;;5067387;28;20033;-82
2021/05/31 10:27:50;;;;;;;0.60;0.60;;;;;;;;;;5064085;28;20056;-82
2021/05/31 10:30:19;;;;;;;0.98;0.70;;;;;;;;;;5058460;28;20093;-82
2021/05/31 10:32:45;;;;;;;0.60;0.60;;;;;;;;;;5070767;28;20039;-82
2021/05/31 10:35:20;;;;;;;1.05;0.60;;;;;;;;;;5069880;28;20095;-82
2021/05/31 10:37:54;;;;;;;0.65;0.65;;;;;;;;;;5054897;28;20043;-82
2021/05/31 10:40:29;;;;;;;0.95;0.60;;;;;;;;;;5100281;27;20048;-82
2021/05/31 10:42:56;;;;;;;0.60;0.60;;;;;;;;;;5061505;28;20029;-82
2021/05/31 10:45:23;;;;;;;0.60;0.60;;;;;;;;;;5069776;28;20068;-82
2021/05/31 10:47:59;;;;;;;0.60;0.60;;;;;;;;;;5064230;28;20040;-82
2021/05/31 10:50:31;;;;;;;0.68;0.60;;;;;;;;;;5063726;28;20041;-82
2021/05/31 10:52:58;;;;;;;0.60;0.60;;;;;;;;;;5068588;28;20036;-82
2021/05/31 10:55:26;;;;;;;0.50;0.50;;;;;;;;;;5099688;28;20040;-82
2021/05/31 10:58:02;;;;;;;0.52;0.52;;;;;;;;;;5048255;28;20048;-82
2021/05/31 11:00:30;;;;;;;0.60;0.60;;;;;;;;;;5062522;28;20045;-82
2021/05/31 11:03:09;;;;;;;0.50;0.50;;;;;;;;;;5057363;28;20521;-82
2021/05/31 11:05:36;;;;;;;0.52;0.52;;;;;;;;;;5096075;28;20155;-82
2021/05/31 11:08:04;;;;;;;0.50;0.50;;;;;;;;;;5063623;28;20044;-82
2021/05/31 11:10:32;;;;;;;0.50;0.50;;;;;;;;;;5065233;28;20153;-82
2021/05/31 11:13:12;;;;;;;3.65;0.60;;;;;;;;;;5067207;28;20049;-82
2021/05/31 11:15:39;;;;;;;0.60;0.60;;;;;;;;;;5064675;28;20037;-82
2021/05/31 11:18:06;;;;;;;0.50;0.50;;;;;;;;;;5064865;28;20437;-82
2021/05/31 11:20:33;;;;;;;0.50;0.50;;;;;;;;;;5065783;28;20184;-82
2021/05/31 11:23:01;;;;;;;0.50;0.50;;;;;;;;;;5067717;28;20064;-82
2021/05/31 11:25:29;;;;;;;0.50;0.50;;;;;;;;;;5099783;28;20036;-82
2021/05/31 11:27:58;;;;;;;0.50;0.50;;;;;;;;;;5068372;28;20071;-82
2021/05/31 11:30:26;;;;;;;0.50;0.50;;;;;;;;;;5049013;28;20182;-82
2021/05/31 11:32:54;;;;;;;0.50;0.50;;;;;;;;;;5068483;28;20041;-82
2021/05/31 11:35:21;;;;;;;0.88;0.57;;;;;;;;;;5098701;28;20040;-82
2021/05/31 11:38:05;;;;;;;0.60;0.60;;;;;;;;;;5065876;28;20047;-81
2021/05/31 11:40:35;;;;;;;1.67;0.50;;;;;;;;;;5070478;28;20147;-81
2021/05/31 11:43:04;;;;;;;0.50;0.50;;;;;;;;;;5053298;28;20037;-81
2021/05/31 11:45:35;;;;;;;0.50;0.50;;;;;;;;;;5070289;28;20037;-81
2021/05/31 11:48:12;;;;;;;0.50;0.50;;;;;;;;;;5070305;28;20112;-81
2021/05/31 11:50:42;;;;;;;0.57;0.50;;;;;;;;;;5069987;28;20024;-81
2021/05/31 11:53:10;;;;;;;0.40;0.40;;;;;;;;;;5102662;28;20131;-81
2021/05/31 11:55:38;;;;;;;0.40;0.40;;;;;;;;;;5068119;28;20094;-81
2021/05/31 11:58:05;;;;;;;0.40;0.40;;;;;;;;;;5062396;28;20057;-81
2021/05/31 12:00:50;;;;;;;0.50;0.50;;;;;;;;;;5068927;28;20052;-81
2021/05/31 12:03:18;;;;;;;0.50;0.50;;;;;;;;;;5067962;28;20040;-81
2021/05/31 12:05:44;;;;;;;0.73;0.52;;;;;;;;;;5061428;28;20079;-81
2021/05/31 12:08:12;;;;;;;1.30;0.50;;;;;;;;;;5065384;28;20031;-81
2021/05/31 12:10:42;;;;;;;0.50;0.50;;;;;;;;;;5071469;28;20041;-81
2021/05/31 12:13:09;;;;;;;0.50;0.50;;;;;;;;;;5078338;28;20067;-81
2021/05/31 12:15:38;;;;;;;0.82;0.50;;;;;;;;;;5070555;28;20036;-81
2021/05/31 12:18:10;;;;;;;1.67;0.40;;;;;;;;;;5071771;28;20513;-81
2021/05/31 12:20:37;;;;;;;0.50;0.50;;;;;;;;;;5071024;28;20036;-81
2021/05/31 12:23:13;;;;;;;0.50;0.50;;;;;;;;;;5070618;28;20390;-81
2021/05/31 12:25:40;;;;;;;0.60;0.60;;;;;;;;;;5071572;28;20098;-81
2021/05/31 12:28:07;;;;;;;0.50;0.50;;;;;;;;;;5064812;28;20044;-81
2021/05/31 12:30:34;;;;;;;0.47;0.47;;;;;;;;;;5051540;28;20048;-81
2021/05/31 12:33:11;;;;;;;0.50;0.50;;;;;;;;;;5069583;28;20502;-81
2021/05/31 12:35:37;;;;;;;1.55;0.50;;;;;;;;;;5079084;28;20064;-81
2021/05/31 12:38:04;;;;;;;1.30;0.50;;;;;;;;;;5068029;28;20506;-81
2021/05/31 12:40:35;;;;;;;0.50;0.50;;;;;;;;;;5061877;28;20067;-81
2021/05/31 12:43:03;;;;;;;0.57;0.57;;;;;;;;;;5066349;28;20029;-81
2021/05/31 12:45:30;;;;;;;0.50;0.50;;;;;;;;;;5065322;28;20086;-81
2021/05/31 12:47:57;;;;;;;0.55;0.50;;;;;;;;;;5057603;28;20033;-81
2021/05/31 12:50:25;;;;;;;0.50;0.50;;;;;;;;;;5065447;28;20071;-81
2021/05/31 12:52:52;;;;;;;0.80;0.60;;;;;;;;;;5060016;28;20208;-81
2021/05/31 12:55:25;;;;;;;0.50;0.50;;;;;;;;;;5060217;28;20078;-81
2021/05/31 12:57:52;;;;;;;1.00;0.60;;;;;;;;;;5067164;28;20068;-81
2021/05/31 13:00:26;;;;;;;1.05;0.50;;;;;;;;;;5065017;28;20059;-81
2021/05/31 13:03:04;;;;;;;0.60;0.60;;;;;;;;;;5103140;28;20562;-80
2021/05/31 13:05:31;;;;;;;1.30;0.60;;;;;;;;;;5067080;28;20554;-78
2021/05/31 13:07:59;;;;;;;1.58;0.50;;;;;;;;;;5069382;28;20060;-77
2021/05/31 13:10:27;;;;;;;0.52;0.50;;;;;;;;;;5068732;28;20037;-77
2021/05/31 13:13:05;;;;;;;0.50;0.50;;;;;;;;;;5069998;28;20148;-77
2021/05/31 13:15:42;;;;;;;0.50;0.50;;;;;;;;;;5075745;28;20502;-77
2021/05/31 13:18:19;;;;;;;0.50;0.50;;;;;;;;;;5063984;28;20053;-77
2021/05/31 13:20:46;;;;;;;0.55;0.55;;;;;;;;;;5063462;28;20064;-77
2021/05/31 13:23:15;;;;;;;0.82;0.50;;;;;;;;;;5052967;28;20058;-77
2021/05/31 13:25:43;;;;;;;0.90;0.50;;;;;;;;;;5070736;28;20064;-77
2021/05/31 13:28:11;;;;;;;0.52;0.52;;;;;;;;;;5065464;28;20033;-77
2021/05/31 13:30:38;;;;;;;5.28;0.50;;;;;;;;;;5067331;28;20040;-77
2021/05/31 13:33:06;;;;;;;0.50;0.50;;;;;;;;;;5062342;28;20622;-77
2021/05/31 13:35:33;;;;;;;0.47;0.47;;;;;;;;;;5069628;28;20151;-77
2021/05/31 13:38:01;;;;;;;0.73;0.50;;;;;;;;;;5065326;28;20045;-77
2021/05/31 13:40:31;;;;;;;2.05;0.50;;;;;;;;;;5063877;28;20133;-77
2021/05/31 13:43:06;;;;;;;1.35;0.50;;;;;;;;;;5071159;28;20059;-77
2021/05/31 13:45:34;;;;;;;0.50;0.50;;;;;;;;;;5067633;28;20094;-78
2021/05/31 13:48:01;;;;;;;0.50;0.50;;;;;;;;;;5085343;28;20045;-77
2021/05/31 13:50:29;;;;;;;0.50;0.50;;;;;;;;;;5052968;28;20325;-77
2021/05/31 13:52:56;;;;;;;0.50;0.50;;;;;;;;;;5079440;28;20052;-77
2021/05/31 13:55:23;;;;;;;2.65;0.60;;;;;;;;;;5058860;28;20053;-77
2021/05/31 13:57:50;;;;;;;0.50;0.50;;;;;;;;;;5062499;28;20076;-77
2021/05/31 14:00:18;;;;;;;0.50;0.50;;;;;;;;;;5053087;28;20045;-77
2021/05/31 14:02:48;;;;;;;0.57;0.50;;;;;;;;;;5064934;28;20575;-77
2021/05/31 14:05:15;;;;;;;1.42;0.50;;;;;;;;;;5067845;28;20137;-77
2021/05/31 14:07:42;;;;;;;0.50;0.50;;;;;;;;;;5070440;28;20040;-77
2021/05/31 14:10:10;;;;;;;2.13;0.50;;;;;;;;;;5067585;28;20037;-77
2021/05/31 14:12:37;;;;;;;0.50;0.50;;;;;;;;;;5048428;28;20469;-77
2021/05/31 14:15:04;;;;;;;0.57;0.57;;;;;;;;;;5067919;28;20044;-77
2021/05/31 14:17:34;;;;;;;3.50;0.57;;;;;;;;;;5067336;28;20485;-77
2021/05/31 14:20:04;;;;;;;0.50;0.50;;;;;;;;;;5099686;28;20075;-77
2021/05/31 14:22:31;;;;;;;0.50;0.50;;;;;;;;;;5069246;28;20036;-77
2021/05/31 14:24:57;;;;;;;1.20;0.57;;;;;;;;;;5060497;28;20083;-77
2021/05/31 14:27:24;;;;;;;0.50;0.50;;;;;;;;;;5066015;28;20083;-77
2021/05/31 14:29:51;;;;;;;0.45;0.45;;;;;;;;;;5049945;28;20070;-77
2021/05/31 14:32:17;;;;;;;0.50;0.50;;;;;;;;;;5067861;28;20447;-77
2021/05/31 14:34:44;;;;;;;0.40;0.40;;;;;;;;;;5067610;28;20127;-77
2021/05/31 14:37:11;;;;;;;0.40;0.40;;;;;;;;;;5067692;28;20379;-77
2021/05/31 14:39:37;;;;;;;0.80;0.50;;;;;;;;;;5068195;28;20561;-77
2021/05/31 14:42:04;;;;;;;0.50;0.50;;;;;;;;;;5065319;28;20049;-77
2021/05/31 14:44:31;;;;;;;0.60;0.60;;;;;;;;;;5069002;28;20059;-77
2021/05/31 14:46:58;;;;;;;0.50;0.50;;;;;;;;;;5064239;28;20502;-77
2021/05/31 14:49:25;;;;;;;0.50;0.50;;;;;;;;;;5066301;28;20075;-77
2021/05/31 14:51:54;;;;;;;0.40;0.40;;;;;;;;;;5067249;28;20041;-77
2021/05/31 14:54:21;;;;;;;0.40;0.40;;;;;;;;;;5049075;28;20113;-77
2021/05/31 14:56:57;;;;;;;0.40;0.40;;;;;;;;;;5067826;28;20042;-77
2021/05/31 14:59:24;;;;;;;0.40;0.40;;;;;;;;;;5067033;28;20051;-77
2021/05/31 15:01:51;;;;;;;1.58;0.50;;;;;;;;;;5065932;28;20512;-77
2021/05/31 15:04:18;;;;;;;0.47;0.47;;;;;;;;;;5067689;28;20070;-78
2021/05/31 15:06:44;;;;;;;0.63;0.50;;;;;;;;;;5067146;28;20033;-78
2021/05/31 15:09:11;;;;;;;1.05;0.50;;;;;;;;;;5046733;28;20394;-78
2021/05/31 15:11:38;;;;;;;0.40;0.40;;;;;;;;;;5067517;28;20536;-78
2021/05/31 15:14:05;;;;;;;0.50;0.50;;;;;;;;;;5057955;28;20076;-78
2021/05/31 15:16:32;;;;;;;0.40;0.40;;;;;;;;;;5052858;28;20053;-78
2021/05/31 15:18:59;;;;;;;0.50;0.50;;;;;;;;;;5059897;28;20037;-77